Roscoe, Montana
Current Conditions -  °F | °C
As of 3:55 PM on Tuesday 21 Oct 2014 (Local Time) from KPOY Reporting Station
Clear Clear  
Wind Chill: 63°   Ceiling: Unl
Heat Index: 63°   Visibility: 10mi
Dew Point: 30°   Wind: 25mph
Humidity: 30%   Direction: 260°W
Pressure: 29.79"   Gusts: 33mph
Location:  45.35°N, 109.5°W
Report Text: KPOY 212155Z AUTO 26022G29KT 10SM CLR 17/M01 A2979 RMK AO2 LTG DSNT N
Loading
Personal Weather Stations






























Interactive Weather Map
Tropical Storm Tracking
New forecast layout! Learn more

10-Day Weather Forecast

Advertisements
Track Severe Weather on mobile